Main page
METAR-TAF:

METAR-TAF

Airports :

Gällivare Lapland Airport

Gällivare, Sweden

latitude: 67-09N, longitude: 020-39E, elevation: 359 m

Current weather observation

The report was made 42 minutes ago, at 00:50 UTC
Wind 3 kt from the West/Northwest
Temperature -12°C
Humidity 85%
Pressure 968 hPa
Visibility 10 km or more

METAR: ESNG 180050Z AUTO 30003KT 9999 NCD M12/M14 Q0968

Time: 02:32 (01:32 UTC)

Forecast

The report was made 8 hours and 2 minutes ago, at 17:30 UTC
Forecast valid from 17 at 18 UTC to 17 at 22 UTC
Wind 2 kt from variable directions
Visibility 10 km or more
no clouds below 1500 m and no cumulonimbus

TAF: ESNG 171730Z 1718/1722 VRB02KT CAVOK

Weather observations and forecasts of more than 4000 airports (METAR and TAF reports).

The available stations are represented by yellow and red dots on the map.

Hover mouse over dot to see the name of the station.

Then click to see weather observations and forecasts.

To change the map : click on the green buttons with a black cross to zoom in, on the green button with a dash to zoom out, or on the green arrows for adjacent maps.


METAR-TAF: